Terminal Aerodrome Forecast
Issued by NWS Austin/San Antonio, TX

Home | Current Version | Previous Version | Text Only | Print | Product List | Glossary On
Versions: 1 2 3 4 5 6 7 8 9 10 11 12 13 14 15 16 17 18
000
FTUS44 KEWX 171900 AAA
TAFAUS
TAF AMD
KAUS 171954Z 1720/1824 08005KT P6SM -RA OVC025
      TEMPO 1720/1722 2SM -TSRA OVC015CB
     FM180200 12004KT 1SM -DZ BR OVC007
     FM181500 30004KT P6SM OVC015
     FM182000 01005KT P6SM OVC035=

USA.gov is the U.S. government's official web portal to all federal, state and local government web resources and services.